Tiempo atmosférico en la estación meteorológica de Forua, Bizkaia (45 m.)

Fecha
DESCASC
Temp. máxima en grados centígrados (hora)
DESCASC
Temp. mínima en grados centígrados (hora)
DESCASC
Temp. media en grados centígrados
DESCASC
Racha de viento máxima en m/sg (hora)
DESCASC
Velocidad máxima media en intervalos de 10 minutos(hora)
DESCASC
Precipitaciones diarias en mm
DESCASC
Precipitaciones de 00:00 a 06:00 en mm
DESCASC
Precipitaciones de 06:00 a 12:00 en mm
DESCASC
Precipitaciones de 12:00 a 18:00 en mm
DESCASC
Precipitaciones de 18:00 a 24:00 en mm
DESCASC
10-12-2017 17.8 (23:59) 10.7 (20:30) 14.2 17.5 (23:40) 9.17 (23:50) 19.2 2.2 0 12.8 4.2
09-12-2017 11.3 (23:50) 6.2 (08:10) 8.8 5.56 (18:20) 3.61 (19:10) 20.6 0.8 0.6 3 16.2
08-12-2017 11.4 (00:00) 8.1 (23:10) 9.8 5 (00:40) 2.78 (01:00) 27.4 8.6 11.6 2.8 4.4
07-12-2017 14.3 (13:40) 2.5 (00:00) 8.4 8.89 (15:30) 4.44 (12:50) 0 0 0 0 0
06-12-2017 13.5 (16:00) -0.6 (-00:0) 6.4 6.11 (14:20) 4.17 (14:40) 0.2 0 0.2 0 0
05-12-2017 11.1 (14:40) 1.1 (00:00) 6.1 6.39 (13:20) 2.78 (13:20) 0 0 0 0 0
04-12-2017 11.5 (15:50) 5.3 (00:00) 8.4 3.89 (06:30) 2.78 (06:30) 1.8 1 0.8 0 0
03-12-2017 6.3 (15:30) -0.3 (00:00) 3 3.61 (23:59) 3.06 (23:59) 0.8 0.2 0 0.2 0.4
02-12-2017 7.6 (13:50) 2.2 (00:00) 4.9 11.39 (12:40) 6.67 (13:10) 24.6 13.6 6.2 2.2 2.6
01-12-2017 8.4 (04:50) 1.8 (00:00) 5.1 18.61 (09:40) 8.33 (07:20) 29.4 7.4 13.4 5.4 3.2
30-11-2017 8 (14:30) 3.1 (00:00) 5.5 15.56 (23:40) 7.5 (23:40) 24.8 6.2 3.2 5.2 10.2
29-11-2017 8.8 (00:20) 4 (00:00) 6.4 8.89 (12:30) 4.72 (12:30) 21.2 4.8 7.2 5.6 3.6
28-11-2017 14.2 (13:50) 1.7 (00:00) 7.9 8.33 (18:40) 4.17 (14:10) 8 0 0 0 8
27-11-2017 11.5 (13:50) 3.1 (00:00) 7.3 4.72 (15:30) 2.5 (21:50) 0.2 0 0.2 0 0
26-11-2017 12 (16:20) 4.9 (00:00) 8.5 4.17 (11:10) 2.78 (03:50) 5.4 1.4 1.6 2.4 0
25-11-2017 12.4 (00:00) 5.6 (00:00) 9 7.78 (03:30) 4.72 (03:30) 14.6 8.8 4.4 0.8 0.6
24-11-2017 19.4 (01:10) 12.4 (00:00) 15.9 9.72 (01:00) 6.11 (03:50) 2.4 0 0.4 0 2
23-11-2017 22 (14:00) 15.1 (00:00) 18.6 10.28 (15:00) 5.56 (08:30) 0.4 0 0.4 0 0
22-11-2017 21.8 (14:30) 6.3 (00:00) 14 11.94 (11:40) 7.78 (13:10) 0 0 0 0 0
21-11-2017 21.7 (15:40) 3.8 (00:00) 12.8 4.72 (21:40) 3.89 (23:20) 0 0 0 0 0
20-11-2017 17.8 (14:50) 1.3 (00:00) 9.5 3.89 (23:50) 2.5 (20:50) 0.2 0 0 0.2 0
19-11-2017 14.4 (15:20) 2 (00:00) 8.2 5 (16:30) 3.61 (14:50) 0.2 0 0.2 0 0
18-11-2017 15.4 (13:40) 5.2 (00:00) 10.3 6.11 (14:00) 4.17 (13:50) 0.2 0 0 0.2 0
17-11-2017 16.2 (13:40) 4 (00:00) 10.1 5.28 (15:20) 3.89 (15:20) 0.2 0 0.2 0 0
16-11-2017 16 (15:20) 1.4 (00:00) 8.7 3.33 (00:20) 2.5 (06:50) 0 0 0 0 0
15-11-2017 13.6 (15:00) 1 (00:00) 7.3 3.89 (14:00) 2.5 (15:50) 0 0 0 0 0

Gráficas

Temp. máximas Temp. mínimas Temp. medias Precipitaciones Rachas de viento máximas Velocidades máximas media en intervalos de 10 minutos

Datos horarios

Fecha y hora oficial Temperatura (ºC) Velocidad del viento (km/h) Dirección del viento Racha (km/h) Dirección de racha Precipitación (mm) Presión (hPa) Tendencia (hPa) Humedad (%)
2017-12-14 23:00:00 12.7 20 Norte 40 Norte 0 -- -- 71
2017-12-14 22:00:00 12 9 Oeste 31 Noroeste 0 -- -- 81
2017-12-14 21:00:00 12.2 9 Oeste 32 Norte 0 -- -- 86
2017-12-14 20:00:00 12.4 10 Noroeste 31 Norte 0 -- -- 87
2017-12-14 19:00:00 12.3 12 Norte 30 Noroeste 0.2 -- -- 89
2017-12-14 18:00:00 12.5 15 Noroeste 46 Norte 0 -- -- 89
2017-12-14 17:00:00 13.1 12 Norte 33 Nordeste 0 -- -- 83
2017-12-14 16:00:00 14.1 5 Sur 22 Noroeste 0 -- -- 80
2017-12-14 15:00:00 14.1 3 Oeste 19 Noroeste 0 -- -- 82
2017-12-14 14:00:00 14.5 4 Noroeste 35 Norte 0 -- -- 81
2017-12-14 13:00:00 15 6 Oeste 18 Oeste 0 -- -- 82
2017-12-14 12:00:00 13.8 8 Sudoeste 15 Sudoeste 0 -- -- 90
2017-12-14 11:00:00 12.2 8 Sudoeste 14 Sudoeste 0 -- -- 99
2017-12-14 10:00:00 11 7 Sudoeste 10 Sudoeste 0.4 -- -- 99
2017-12-14 09:00:00 11 7 Sudoeste 21 Oeste 1 -- -- 98
2017-12-14 08:00:00 11.3 14 Oeste 41 Noroeste 2.6 -- -- 95
2017-12-14 07:00:00 11.7 9 Noroeste 29 Noroeste 2.8 -- -- 95
2017-12-14 06:00:00 11.5 7 Noroeste 34 Noroeste 3.6 -- -- 97
2017-12-14 05:00:00 11.4 9 Oeste 22 Noroeste 2.8 -- -- 99
2017-12-14 04:00:00 11.4 11 Noroeste 24 Noroeste 3 -- -- 100
2017-12-14 03:00:00 10.8 10 Oeste 17 Oeste 3.4 -- -- 100
2017-12-14 02:00:00 10.6 5 Sudoeste 10 Sudoeste 3.6 -- -- 100
2017-12-14 01:00:00 10.7 3 Sur 9 Oeste 1.6 -- -- 100
2017-12-14 00:00:00 10.8 3 Sur 11 Sudoeste 1.2 -- -- 99
2017-12-13 23:00:00 10.8 6 Sudoeste 14 Noroeste 2.4 -- -- 98
2017-12-13 22:00:00 11.5 12 Noroeste 25 Oeste 1.8 -- -- 93
2017-12-13 21:00:00 11.6 6 Oeste 24 Oeste 0.8 -- -- 88
2017-12-13 20:00:00 12 14 Oeste 31 Oeste 0.2 -- -- 82
2017-12-13 19:00:00 13.2 20 Oeste 41 Oeste 0 -- -- 69
2017-12-13 18:00:00 12.8 21 Oeste 43 Oeste 0 -- -- 69
2017-12-13 17:00:00 12.9 23 Oeste 40 Oeste 0 -- -- 66
2017-12-13 16:00:00 12.7 19 Oeste 34 Oeste 0 -- -- 67
2017-12-13 15:00:00 13.8 19 Oeste 37 Oeste 0 -- -- 62
2017-12-13 14:00:00 12.9 17 Oeste 34 Oeste 0 -- -- 66
2017-12-13 13:00:00 11.9 10 Sudoeste 26 Oeste 0 -- -- 73
2017-12-13 12:00:00 10.5 9 Sudoeste 23 Sudoeste 0 -- -- 74
2017-12-13 11:00:00 9.8 8 Sudoeste 21 Sudoeste 0 -- -- 75
2017-12-13 10:00:00 9.1 9 Sudoeste 17 Sudoeste 0 -- -- 79
2017-12-13 09:00:00 8.2 8 Sudoeste 16 Oeste 0 -- -- 85
2017-12-13 08:00:00 8 10 Oeste 24 Oeste 0 -- -- 88
2017-12-13 07:00:00 8.2 10 Oeste 33 Oeste 0 -- -- 81
2017-12-13 06:00:00 6.8 11 Oeste 20 Oeste 0 -- -- 84
2017-12-13 05:00:00 5.4 7 Sudoeste 10 Sudoeste 0 -- -- 87
2017-12-13 04:00:00 4.2 3 Oeste 8 Oeste 0 -- -- 92
2017-12-13 03:00:00 4.3 4 Sudoeste 11 Oeste 0 -- -- 93
2017-12-13 02:00:00 4 6 Oeste 9 Sudoeste 0 -- -- 95
2017-12-13 01:00:00 4.4 8 Oeste 10 Sudoeste 0 -- -- 97
2017-12-13 00:00:00 4.5 10 Oeste 13 Oeste 0 -- -- 95
2017-12-12 23:00:00 5.4 9 Sudoeste 12 Sudoeste 0 -- -- 94
2017-12-12 22:00:00 5.9 9 Oeste 11 Oeste 0 -- -- 92
2017-12-12 21:00:00 6.3 4 Sudoeste 8 Sudoeste 0 -- -- 92
2017-12-12 20:00:00 6.8 7 Sudoeste 9 Sudoeste 0 -- -- 91
2017-12-12 19:00:00 7.1 4 Oeste 8 Oeste 0 -- -- 87
2017-12-12 18:00:00 7.4 8 Oeste 13 Oeste 0 -- -- 87
2017-12-12 17:00:00 8.1 6 Oeste 30 Noroeste 0 -- -- 83
2017-12-12 16:00:00 8.9 17 Noroeste 27 Noroeste 0 -- -- 79
2017-12-12 15:00:00 9.9 12 Oeste 24 Oeste 0 -- -- 75
2017-12-12 14:00:00 9.5 9 Noroeste 20 Oeste 0 -- -- 78
2017-12-12 13:00:00 9.4 9 Oeste 23 Noroeste 0 -- -- 80
2017-12-12 12:00:00 8.9 8 Sudoeste 17 Oeste 0 -- -- 82
2017-12-12 11:00:00 7.1 11 Sudoeste 18 Sudoeste 0 -- -- 89
2017-12-12 10:00:00 5.3 10 Sudoeste 17 Sudoeste 0 -- -- 100
2017-12-12 09:00:00 4.2 6 Sudoeste 15 Sudoeste 0 -- -- 100
2017-12-12 08:00:00 3.4 8 Sudoeste 12 Sudoeste 0 -- -- 100
2017-12-12 07:00:00 2.3 3 Sudoeste 10 Sur 0 -- -- 100
2017-12-12 06:00:00 2.6 6 Sudoeste 12 Sudoeste 0.2 -- -- 100
2017-12-12 05:00:00 3.3 5 Sudoeste 10 Sudoeste 0 -- -- 99
2017-12-12 04:00:00 4.2 5 Sudoeste 17 Sudoeste 0.8 -- -- 99
2017-12-12 03:00:00 4.8 12 Sudoeste 17 Sudoeste 0.2 -- -- 99
2017-12-12 02:00:00 5.1 3 Sudoeste 20 Sudoeste 0.2 -- -- 98
2017-12-12 01:00:00 5.4 8 Sudoeste 33 Noroeste 3 -- -- 96
2017-12-12 00:00:00 5.7 18 Noroeste 37 Noroeste 0.4 -- -- 94
2017-12-11 23:00:00 5.7 9 Oeste 28 Oeste 2.8 -- -- 92
2017-12-11 22:00:00 5.3 14 Oeste 28 Noroeste 2.2 -- -- 97
2017-12-11 21:00:00 5.7 13 Oeste 38 Noroeste 2.4 -- -- 92
2017-12-11 20:00:00 6.3 16 Noroeste 37 Norte 2 -- -- 88
2017-12-11 19:00:00 6.2 5 Sur 31 Norte 1.6 -- -- 95
2017-12-11 18:00:00 6.6 8 Noroeste 50 Norte 2.6 -- -- 91
2017-12-11 17:00:00 7.6 16 Oeste 48 Noroeste 2.2 -- -- 86
2017-12-11 16:00:00 8.3 11 Oeste 53 Noroeste 0.6 -- -- 84
2017-12-11 15:00:00 10 10 Noroeste 43 Noroeste 0.2 -- -- 75
2017-12-11 14:00:00 10.8 13 Oeste 41 Noroeste 0 -- -- 69
2017-12-11 13:00:00 11.4 13 Noroeste 51 Oeste 0 -- -- 65
2017-12-11 12:00:00 10.8 9 Noroeste 34 Noroeste 0 -- -- 66
2017-12-11 11:00:00 10.1 8 Sudoeste 24 Noroeste 0 -- -- 75
2017-12-11 10:00:00 7 4 Oeste 12 Sudoeste 0 -- -- 95
2017-12-11 09:00:00 7.3 6 Sudoeste 20 Sudoeste 0 -- -- 92
2017-12-11 08:00:00 7.4 9 Sudoeste 15 Sudoeste 0.2 -- -- 95
2017-12-11 07:00:00 7.4 9 Sur 18 Sudoeste 0 -- -- 97
2017-12-11 06:00:00 7.9 8 Sudoeste 31 Oeste 2.2 -- -- 94
2017-12-11 05:00:00 8.9 11 Oeste 36 Noroeste 3 -- -- 93
2017-12-11 04:00:00 8.8 5 Oeste 14 Oeste 1.8 -- -- 98
2017-12-11 03:00:00 9.5 9 Oeste 48 Nordeste 4.2 -- -- 92
2017-12-11 02:00:00 9.9 16 Norte 57 Norte 9.8 -- -- 92
2017-12-11 01:00:00 11.2 21 Norte 74 Sudoeste 3.8 -- -- 88
2017-12-11 00:00:00 17.8 32 Oeste 63 Sudoeste 0 -- -- 59
2017-12-10 23:00:00 17.1 32 Sudoeste 55 Sudoeste 0 -- -- 64
2017-12-10 22:00:00 15.7 24 Oeste 45 Oeste 0 -- -- 73
2017-12-10 21:00:00 10.8 3 Este 13 Oeste 0.2 -- -- 100
2017-12-10 20:00:00 10.8 4 Noroeste 10 Sudoeste 0.6 -- -- 100
2017-12-10 19:00:00 10.9 7 Sudoeste 17 Oeste 3.4 -- -- 99
2017-12-10 18:00:00 11.3 10 Sudoeste 31 Noroeste 4.8 -- -- 97
2017-12-10 17:00:00 12 10 Norte 25 Noroeste 4.4 -- -- 93
2017-12-10 16:00:00 12.6 7 Sur 32 Norte 2.6 -- -- 96
2017-12-10 15:00:00 14.4 17 Nordeste 30 Norte 0.8 -- -- 89
2017-12-10 14:00:00 16 14 Oeste 36 Oeste 0.2 -- -- 76
2017-12-10 13:00:00 16.5 19 Oeste 40 Oeste 0 -- -- 68
2017-12-10 12:00:00 15.9 15 Oeste 46 Oeste 0 -- -- 72
2017-12-10 11:00:00 16 19 Oeste 54 Oeste 0 -- -- 67
2017-12-10 10:00:00 15.8 17 Oeste 50 Oeste 0 -- -- 65
2017-12-10 09:00:00 15.2 22 Oeste 42 Oeste 0 -- -- 68
2017-12-10 08:00:00 14.5 12 Oeste 40 Sudoeste 0 -- -- 72
2017-12-10 07:00:00 13.5 16 Oeste 42 Oeste 0 -- -- 82
2017-12-10 06:00:00 12.2 14 Sudoeste 30 Oeste 0 -- -- 89
2017-12-10 05:00:00 11.8 6 Oeste 15 Oeste 0 -- -- 95
2017-12-10 04:00:00 11.6 7 Sudoeste 15 Sudoeste 0 -- -- 97
2017-12-10 03:00:00 11.5 9 Oeste 15 Sudoeste 0.8 -- -- 98
2017-12-10 02:00:00 11.8 6 Oeste 18 Oeste 0.6 -- -- 99
2017-12-10 01:00:00 11.6 8 Oeste 14 Sudoeste 0.8 -- -- 100
2017-12-10 00:00:00 11.3 8 Sudoeste 15 Sudoeste 1.6 -- -- 100
2017-12-09 23:00:00 10.9 10 Sudoeste 19 Sudoeste 2.2 -- -- 100
2017-12-09 22:00:00 10.6 13 Sudoeste 20 Oeste 3.2 -- -- 100
2017-12-09 21:00:00 10.1 11 Oeste 14 Oeste 3.8 -- -- 100
2017-12-09 20:00:00 9.7 10 Sudoeste 18 Oeste 3.4 -- -- 100
2017-12-09 19:00:00 9.4 11 Oeste 20 Oeste 2 -- -- 99
2017-12-09 18:00:00 8.9 7 Sudoeste 13 Sudoeste 2.8 -- -- 98
2017-12-09 17:00:00 9.4 4 Sur 9 Oeste 0.2 -- -- 94
2017-12-09 16:00:00 10 5 Sudoeste 9 Sudoeste 0 -- -- 94
2017-12-09 15:00:00 10.1 3 Sur 6 Oeste 0 -- -- 93
2017-12-09 14:00:00 9.8 3 Sur 9 Sur 0 -- -- 95
2017-12-09 13:00:00 9.4 4 Sudoeste 8 Sudoeste 0 -- -- 99
2017-12-09 12:00:00 8.8 5 Sudoeste 8 Sudoeste 0 -- -- 100
2017-12-09 11:00:00 8.1 4 Oeste 7 Sudoeste 0 -- -- 100
2017-12-09 10:00:00 6.9 3 Sudoeste 6 Sudoeste 0.6 -- -- 100
2017-12-09 09:00:00 6.3 5 Sudoeste 8 Oeste 0 -- -- 100
2017-12-09 08:00:00 6.3 4 Sudoeste 8 Oeste 0 -- -- 100
2017-12-09 07:00:00 6.3 3 Sudoeste 9 Sudoeste 0 -- -- 100
2017-12-09 06:00:00 6.4 3 Sudoeste 8 Sudoeste 0 -- -- 100
2017-12-09 05:00:00 6.7 6 Sudoeste 9 Oeste 0.2 -- -- 100
2017-12-09 04:00:00 7.1 3 Sudoeste 8 Sudoeste 0.2 -- -- 100
2017-12-09 03:00:00 7.3 4 Sudoeste 8 Sudoeste 0.2 -- -- 100
2017-12-09 02:00:00 7.6 3 Sudoeste 8 Sudoeste 0.2 -- -- 100
2017-12-09 01:00:00 7.7 4 Sudoeste 6 Sudoeste 0 -- -- 100
2017-12-09 00:00:00 8.1 3 Sudoeste 10 Oeste 0.4 -- -- 100
2017-12-08 23:00:00 8.2 4 Sudoeste 6 Sudoeste 1 -- -- 100
2017-12-08 22:00:00 8.4 5 Sudoeste 12 Sudoeste 0.4 -- -- 100
2017-12-08 21:00:00 8.5 4 Sudoeste 7 Sudoeste 1.4 -- -- 100
2017-12-08 20:00:00 8.6 3 Sudoeste 9 Sudoeste 0.6 -- -- 100
2017-12-08 19:00:00 8.7 6 Sudoeste 9 Sudoeste 0.6 -- -- 100
2017-12-08 18:00:00 8.9 6 Sudoeste 9 Sudoeste 0.4 -- -- 100
2017-12-08 17:00:00 9.2 6 Sudoeste 13 Sudoeste 0 -- -- 99
2017-12-08 16:00:00 9.6 2 Sudoeste 9 Noroeste 0.4 -- -- 98
2017-12-08 15:00:00 9.9 3 Norte 9 Norte 0.6 -- -- 99
2017-12-08 14:00:00 10.4 3 Sudoeste 7 Este 0.6 -- -- 100
2017-12-08 13:00:00 9.9 5 Nordeste 13 Nordeste 0.8 -- -- 100
2017-12-08 12:00:00 10.1 0 Calma 4 Sudoeste 0.6 -- -- 100
2017-12-08 11:00:00 9.6 2 Este 13 Sudoeste 2.8 -- -- 100
2017-12-08 10:00:00 9.3 8 Sudoeste 13 Sudoeste 2 -- -- 100
2017-12-08 09:00:00 9.2 2 Sudoeste 8 Sudoeste 1.8 -- -- 100
2017-12-08 08:00:00 9.2 4 Oeste 7 Sur 3 -- -- 100
2017-12-08 07:00:00 9.3 3 Sudoeste 9 Sur 1.4 -- -- 100
2017-12-08 06:00:00 9.3 3 Sur 8 Sur 1.2 -- -- 100
2017-12-08 05:00:00 9.2 4 Sur 10 Sur 1.4 -- -- 100
2017-12-08 04:00:00 9.3 6 Sur 11 Sudoeste 1.8 -- -- 99
2017-12-08 03:00:00 9.4 4 Sur 15 Sur 1.6 -- -- 98
2017-12-08 02:00:00 9.7 5 Sur 15 Oeste 2.2 -- -- 95
2017-12-08 01:00:00 10.5 10 Oeste 18 Oeste 0.4 -- -- 87
2017-12-08 00:00:00 11.4 8 Oeste 19 Oeste 0 -- -- 76
2017-12-07 23:00:00 10.7 7 Sudoeste 19 Sudoeste 0 -- -- 72
2017-12-07 22:00:00 10.5 8 Sudoeste 15 Noroeste 0 -- -- 71
2017-12-07 21:00:00 10 8 Sudoeste 14 Sudoeste 0 -- -- 71
2017-12-07 20:00:00 8.9 6 Sudoeste 14 Sudoeste 0 -- -- 75
2017-12-07 19:00:00 9.8 6 Sudoeste 13 Sudoeste 0 -- -- 70
2017-12-07 18:00:00 10.7 7 Sudoeste 18 Sudoeste 0 -- -- 69
2017-12-07 17:00:00 11.7 6 Sudoeste 19 Sudoeste 0 -- -- 73
2017-12-07 16:00:00 12.1 11 Sudoeste 32 Oeste 0 -- -- 69
2017-12-07 15:00:00 12.8 13 Sudoeste 21 Oeste 0 -- -- 54
2017-12-07 14:00:00 14.2 10 Sudoeste 23 Oeste 0 -- -- 52
2017-12-07 13:00:00 13.1 13 Sudoeste 26 Sudoeste 0 -- -- 53
2017-12-07 12:00:00 12 7 Sudoeste 17 Sudoeste 0 -- -- 56
2017-12-07 11:00:00 9.8 9 Sudoeste 16 Sudoeste 0 -- -- 62
2017-12-07 10:00:00 7.1 5 Sudoeste 16 Sudoeste 0 -- -- 78
2017-12-07 09:00:00 6 10 Sudoeste 14 Sudoeste 0 -- -- 76
2017-12-07 08:00:00 4.7 9 Sudoeste 13 Sudoeste 0 -- -- 85
2017-12-07 07:00:00 5 6 Sudoeste 9 Sudoeste 0 -- -- 82
2017-12-07 06:00:00 4.7 5 Sudoeste 10 Sudoeste 0 -- -- 84
2017-12-07 05:00:00 3.7 3 Noroeste 10 Oeste 0 -- -- 89
2017-12-07 04:00:00 3.7 7 Sudoeste 12 Oeste 0 -- -- 89
2017-12-07 03:00:00 3.6 10 Oeste 13 Sudoeste 0 -- -- 87
2017-12-07 02:00:00 3.5 8 Sudoeste 12 Sudoeste 0 -- -- 87
2017-12-07 01:00:00 2.5 5 Sudoeste 12 Oeste 0 -- -- 90
2017-12-07 00:00:00 2.7 12 Oeste 15 Oeste 0 -- -- 91
2017-12-06 23:00:00 2.5 9 Sudoeste 15 Oeste 0 -- -- 93
2017-12-06 22:00:00 2.9 7 Sudoeste 10 Sudoeste 0 -- -- 91
2017-12-06 21:00:00 3.9 9 Sudoeste 11 Sudoeste 0 -- -- 89
2017-12-06 20:00:00 4.6 5 Sudoeste 10 Sudoeste 0 -- -- 88
2017-12-06 19:00:00 5.8 7 Sudoeste 10 Sudoeste 0 -- -- 85
2017-12-06 18:00:00 8.7 5 Oeste 7 Oeste 0 -- -- 74
2017-12-06 17:00:00 12.2 5 Oeste 9 Oeste 0 -- -- 59
2017-12-06 16:00:00 13.5 5 Oeste 16 Sudoeste 0 -- -- 58
2017-12-06 15:00:00 13.3 12 Oeste 22 Sudoeste 0 -- -- 55
2017-12-06 14:00:00 13 11 Sudoeste 21 Sudoeste 0 -- -- 57
2017-12-06 13:00:00 11.3 6 Sudoeste 13 Oeste 0 -- -- 70
2017-12-06 12:00:00 8.3 3 Sudoeste 8 Oeste 0 -- -- 84
2017-12-06 11:00:00 5.2 6 Sudoeste 11 Sudoeste 0 -- -- 100
2017-12-06 10:00:00 2 8 Sudoeste 12 Sudoeste 0.2 -- -- 100
2017-12-06 09:00:00 -0.4 7 Oeste 9 Oeste 0 -- -- 100
2017-12-06 08:00:00 -0.4 6 Sudoeste 9 Oeste 0 -- -- 100
2017-12-06 07:00:00 -0.3 4 Sudoeste 8 Oeste 0 -- -- 100
2017-12-06 06:00:00 -0.3 6 Sudoeste 9 Sudoeste 0 -- -- 100
2017-12-06 05:00:00 -0.3 7 Oeste 8 Oeste 0 -- -- 100
2017-12-06 04:00:00 0.3 5 Sudoeste 10 Sudoeste 0 -- -- 100
2017-12-06 03:00:00 0.4 7 Sudoeste 10 Sudoeste 0 -- -- 100
2017-12-06 02:00:00 0.7 6 Sudoeste 9 Sudoeste 0 -- -- 100
2017-12-06 01:00:00 1 6 Sudoeste 9 Sudoeste 0 -- -- 100
2017-12-06 00:00:00 1.1 8 Oeste 9 Sudoeste 0 -- -- 100
2017-12-05 23:00:00 1.5 6 Sudoeste 9 Sudoeste 0 -- -- 100
2017-12-05 22:00:00 1.9 7 Sudoeste 10 Sudoeste 0 -- -- 99
2017-12-05 21:00:00 2.6 7 Sudoeste 9 Oeste 0 -- -- 98
2017-12-05 20:00:00 3.7 5 Sudoeste 11 Sudoeste 0 -- -- 97
2017-12-05 19:00:00 4.9 7 Sudoeste 10 Oeste 0 -- -- 92
2017-12-05 18:00:00 7.8 3 Sudoeste 8 Norte 0 -- -- 78
2017-12-05 17:00:00 9.7 4 Norte 14 Sur 0 -- -- 71
2017-12-05 16:00:00 10.7 6 Sudeste 19 Sudeste 0 -- -- 64
2017-12-05 15:00:00 11.1 6 Sudeste 21 Sur 0 -- -- 63
2017-12-05 14:00:00 11 9 Sur 23 Sur 0 -- -- 64
2017-12-05 13:00:00 10.6 7 Sur 15 Sur 0 -- -- 69
2017-12-05 12:00:00 7.6 2 Oeste 6 Oeste 0 -- -- 100
2017-12-05 11:00:00 4.9 2 Sudoeste 8 Sudoeste 0 -- -- 100
2017-12-05 10:00:00 2.4 4 Sudoeste 8 Sudoeste 0 -- -- 100
2017-12-05 09:00:00 2.2 3 Sur 8 Sudoeste 0 -- -- 100
2017-12-05 08:00:00 2.7 3 Sudoeste 6 Sudoeste 0 -- -- 100
2017-12-05 07:00:00 2.8 2 Sur 8 Oeste 0 -- -- 100
2017-12-05 06:00:00 3.8 2 Sur 9 Sudoeste 0 -- -- 100
2017-12-05 05:00:00 4.2 3 Sudoeste 8 Oeste 0 -- -- 100
2017-12-05 04:00:00 4.6 2 Sur 7 Sudoeste 0 -- -- 100
2017-12-05 03:00:00 4.9 4 Sudoeste 8 Sudoeste 0 -- -- 100
2017-12-05 02:00:00 5.6 4 Sudoeste 10 Sudoeste 0 -- -- 100
2017-12-05 01:00:00 6.1 2 Sudoeste 6 Sudoeste 0 -- -- 100
2017-12-05 00:00:00 6.5 3 Sudoeste 6 Sur 0 -- -- 100
2017-12-04 23:00:00 6.6 0 Calma 7 Sudoeste 0 -- -- 100
2017-12-04 22:00:00 7 3 Sudoeste 4 Sur 0 -- -- 100
2017-12-04 21:00:00 7.1 0 Calma 4 Sur 0 -- -- 100
2017-12-04 20:00:00 7.7 0 Calma 4 Sudeste 0 -- -- 100
2017-12-04 19:00:00 8.4 3 Sur 5 Sur 0 -- -- 99
2017-12-04 18:00:00 9.7 0 Calma 4 Norte 0 -- -- 99
2017-12-04 17:00:00 10.4 3 Sudoeste 3 Oeste 0 -- -- 96
2017-12-04 16:00:00 11.3 3 Sur 8 Oeste 0 -- -- 93
2017-12-04 15:00:00 10.7 3 Oeste 8 Noroeste 0 -- -- 97
2017-12-04 14:00:00 10.8 6 Sudoeste 11 Sudoeste 0 -- -- 100
2017-12-04 13:00:00 9.2 6 Oeste 9 Sudoeste 0 -- -- 100
2017-12-04 12:00:00 9.1 5 Sudoeste 9 Oeste 0 -- -- 100
2017-12-04 11:00:00 8.6 5 Sudoeste 9 Oeste 0 -- -- 100
2017-12-04 10:00:00 7.7 5 Sudoeste 11 Sudoeste 0 -- -- 100
2017-12-04 09:00:00 7 6 Sudoeste 10 Sudoeste 0.6 -- -- 100
2017-12-04 08:00:00 7 4 Oeste 9 Sudoeste 0.2 -- -- 100
2017-12-04 07:00:00 6.8 9 Sudoeste 14 Sudoeste 0 -- -- 100
2017-12-04 06:00:00 6.4 10 Sudoeste 13 Sudoeste 0 -- -- 100
2017-12-04 05:00:00 6 8 Sudoeste 12 Oeste 0 -- -- 100
2017-12-04 04:00:00 6.2 8 Sudoeste 10 Oeste 0.4 -- -- 100
2017-12-04 03:00:00 5.9 8 Sudoeste 12 Oeste 0.2 -- -- 100
2017-12-04 02:00:00 5.5 6 Sudoeste 13 Sudoeste 0 -- -- 100
2017-12-04 01:00:00 5.6 8 Sudoeste 12 Sudoeste 0.4 -- -- 100
2017-12-04 00:00:00 5.5 11 Sudoeste 13 Sudoeste 0.2 -- -- 100
2017-12-03 23:00:00 5.4 7 Sudoeste 11 Sudoeste 0.2 -- -- 100
2017-12-03 22:00:00 5.6 6 Oeste 10 Sudoeste 0 -- -- 100
2017-12-03 21:00:00 5.9 4 Oeste 10 Sudoeste 0 -- -- 99
2017-12-03 20:00:00 5.7 3 Sudoeste 10 Sudoeste 0 -- -- 99
2017-12-03 19:00:00 5.6 4 Sudoeste 9 Oeste 0 -- -- 99
2017-12-03 18:00:00 5.7 5 Oeste 10 Sudoeste 0 -- -- 97
2017-12-03 17:00:00 6.1 6 Sudoeste 11 Sudoeste 0.2 -- -- 97
2017-12-03 16:00:00 6.3 7 Sudoeste 12 Sudoeste 0 -- -- 98
2017-12-03 15:00:00 6.1 8 Oeste 11 Sudoeste 0 -- -- 100
2017-12-03 14:00:00 5.7 8 Sudoeste 12 Sudoeste 0 -- -- 100
2017-12-03 13:00:00 4.5 7 Oeste 12 Sudoeste 0 -- -- 100
2017-12-03 12:00:00 3.2 4 Sudoeste 11 Sudoeste 0 -- -- 100
2017-12-03 11:00:00 1.9 4 Sudoeste 11 Oeste 0 -- -- 100
2017-12-03 10:00:00 0.2 7 Sudoeste 11 Sudoeste 0 -- -- 100
2017-12-03 09:00:00 -0.3 5 Sudoeste 9 Sudoeste 0 -- -- 100
2017-12-03 08:00:00 -0.3 6 Sudoeste 10 Sudoeste 0 -- -- 100
2017-12-03 07:00:00 -0.2 5 Sudoeste 9 Sudoeste 0 -- -- 100
2017-12-03 06:00:00 -0.2 5 Sudoeste 10 Sudoeste 0.2 -- -- 100
2017-12-03 05:00:00 0.2 4 Sudoeste 9 Oeste 0 -- -- 100
2017-12-03 04:00:00 0.4 6 Sudoeste 9 Sudoeste 0 -- -- 100
2017-12-03 03:00:00 1.1 3 Sudoeste 12 Sudoeste 0 -- -- 100
2017-12-03 02:00:00 2 6 Sudoeste 9 Sudoeste 0 -- -- 100
2017-12-03 01:00:00 3.2 4 Oeste 10 Oeste 0 -- -- 99
2017-12-03 00:00:00 4.2 7 Oeste 14 Oeste 0 -- -- 99
2017-12-02 23:00:00 5.4 3 Este 35 Nordeste 1.6 -- -- 93
2017-12-02 22:00:00 4.6 16 Nordeste 32 Nordeste 1 -- -- 100
2017-12-02 21:00:00 3.8 8 Noroeste 14 Nordeste 0 -- -- 100
2017-12-02 20:00:00 3.7 3 Noroeste 8 Norte 0 -- -- 100
2017-12-02 19:00:00 4 3 Oeste 6 Sur 0 -- -- 99
2017-12-02 18:00:00 4.9 4 Sur 13 Norte 0.2 -- -- 97
2017-12-02 17:00:00 5.8 2 Sur 12 Sudeste 0.2 -- -- 92
2017-12-02 16:00:00 6.4 3 Sur 8 Este 0 -- -- 95
2017-12-02 15:00:00 6.2 6 Este 21 Sudeste 0 -- -- 92
2017-12-02 14:00:00 6.9 12 Sudeste 39 Este 0.2 -- -- 87
2017-12-02 13:00:00 6 15 Este 41 Este 1.6 -- -- 95
2017-12-02 12:00:00 5.5 6 Noroeste 13 Noroeste 0 -- -- 100
2017-12-02 11:00:00 4.8 4 Norte 29 Nordeste 1.6 -- -- 100
2017-12-02 10:00:00 3.5 6 Sudoeste 10 Sudoeste 1 -- -- 100
2017-12-02 09:00:00 2.7 5 Sudoeste 15 Sudeste 1 -- -- 100
2017-12-02 08:00:00 2.7 3 Sudoeste 15 Sudoeste 0.8 -- -- 100
2017-12-02 07:00:00 3.4 4 Oeste 18 Sudeste 1.8 -- -- 99
2017-12-02 06:00:00 3.1 8 Sur 17 Oeste 1.2 -- -- 100
2017-12-02 05:00:00 3.3 10 Sudoeste 17 Oeste 2 -- -- 100
2017-12-02 04:00:00 3.7 9 Este 22 Este 5.2 -- -- 100
2017-12-02 03:00:00 3.4 13 Oeste 22 Sudeste 1.4 -- -- 100
2017-12-02 02:00:00 2.5 4 Sudoeste 17 Oeste 3.6 -- -- 100
2017-12-02 01:00:00 2.3 13 Oeste 18 Sudoeste 0.2 -- -- 100
2017-12-02 00:00:00 2.3 16 Oeste 26 Sudoeste 1.6 -- -- 100
2017-12-01 23:00:00 1.9 4 Sur 13 Sudoeste 0.2 -- -- 100
2017-12-01 22:00:00 2 7 Oeste 13 Sur 0.6 -- -- 100
2017-12-01 21:00:00 1.8 5 Sudoeste 13 Sudoeste 0.2 -- -- 100
2017-12-01 20:00:00 2 6 Sudoeste 13 Sudoeste 0 -- -- 100
2017-12-01 19:00:00 2.3 4 Sudoeste 11 Sudoeste 0.6 -- -- 100
2017-12-01 18:00:00 2.2 4 Sudoeste 14 Sudoeste 0.2 -- -- 100
2017-12-01 17:00:00 2.6 6 Oeste 13 Sudoeste 0.6 -- -- 99
2017-12-01 16:00:00 3.1 3 Sudoeste 9 Sudoeste 2 -- -- 99
2017-12-01 15:00:00 3.5 6 Sudoeste 18 Oeste 0.4 -- -- 98
2017-12-01 14:00:00 3.9 9 Oeste 13 Oeste 1 -- -- 98
2017-12-01 13:00:00 4.1 4 Sur 41 Este 1.2 -- -- 95
2017-12-01 12:00:00 4.3 7 Sudoeste 12 Oeste 0.4 -- -- 100
2017-12-01 11:00:00 3.6 4 Noroeste 22 Este 1 -- -- 96
2017-12-01 10:00:00 4.7 17 Este 67 Nordeste 2.4 -- -- 96
2017-12-01 09:00:00 5.4 18 Este 46 Este 2.6 -- -- 95
2017-12-01 08:00:00 5.2 30 Este 60 Nordeste 3.2 -- -- 96
2017-12-01 07:00:00 7.1 3 Sur 31 Nordeste 3.8 -- -- 96
2017-12-01 06:00:00 8 12 Norte 48 Norte 0.6 -- -- 88
2017-12-01 05:00:00 8.3 19 Norte 66 Norte 1.2 -- -- 87
2017-12-01 04:00:00 7.3 6 Noroeste 28 Norte 2 -- -- 92
2017-12-01 03:00:00 6.7 13 Sudoeste 22 Este 1.6 -- -- 97
2017-12-01 02:00:00 7 9 Sudeste 29 Norte 0.2 -- -- 96
2017-12-01 01:00:00 7.3 2 Este 35 Norte 1.8 -- -- 95
2017-12-01 00:00:00 7.1 13 Oeste 56 Noroeste 1.4 -- -- 94
2017-11-30 23:00:00 7.2 19 Noroeste 43 Noroeste 3.4 -- -- 94
2017-11-30 22:00:00 7.2 15 Noroeste 33 Noroeste 0.4 -- -- 97
2017-11-30 21:00:00 7.2 21 Norte 41 Nordeste 2.4 -- -- 94
2017-11-30 20:00:00 6.2 13 Oeste 21 Oeste 1.6 -- -- 99
2017-11-30 19:00:00 6 10 Sudoeste 23 Oeste 1 -- -- 97
2017-11-30 18:00:00 6.1 12 Oeste 40 Noroeste 0.4 -- -- 94
2017-11-30 17:00:00 6.9 19 Noroeste 36 Noroeste 0.6 -- -- 88
2017-11-30 16:00:00 7.5 15 Noroeste 31 Oeste 1.6 -- -- 91
2017-11-30 15:00:00 7.4 17 Noroeste 36 Noroeste 0.8 -- -- 94
2017-11-30 14:00:00 7.2 8 Sudoeste 13 Sudoeste 1.2 -- -- 100
2017-11-30 13:00:00 6.6 9 Sudoeste 15 Sudoeste 0.6 -- -- 100
2017-11-30 12:00:00 6.3 5 Sudoeste 12 Sudoeste 0 -- -- 100
2017-11-30 11:00:00 5.3 6 Sudoeste 13 Oeste 0 -- -- 100
2017-11-30 10:00:00 4.4 6 Sudoeste 15 Sudoeste 0 -- -- 100
2017-11-30 09:00:00 3.6 4 Sudoeste 9 Sudoeste 0.2 -- -- 100
2017-11-30 08:00:00 3.1 5 Sudoeste 14 Sudoeste 0 -- -- 100
2017-11-30 07:00:00 3.8 9 Oeste 19 Oeste 3 -- -- 100
2017-11-30 06:00:00 3.6 11 Sudoeste 16 Sudoeste 3.2 -- -- 100
2017-11-30 05:00:00 3.6 5 Sudoeste 11 Sudoeste 0.4 -- -- 100
2017-11-30 04:00:00 3.3 5 Sur 14 Sudoeste 0.2 -- -- 100
2017-11-30 03:00:00 3.8 9 Sudoeste 17 Sudoeste 2.2 -- -- 100
2017-11-30 02:00:00 3.3 4 Sudoeste 11 Sudoeste 0.2 -- -- 100
2017-11-30 01:00:00 3.7 5 Sudoeste 10 Sudoeste 0 -- -- 100
2017-11-30 00:00:00 4 6 Sudoeste 15 Oeste 0.2 -- -- 100
2017-11-29 23:00:00 4.1 8 Oeste 12 Oeste 1.2 -- -- 100
2017-11-29 22:00:00 5.2 4 Sur 13 Oeste 1.4 -- -- 100
2017-11-29 21:00:00 4.9 5 Sudoeste 10 Oeste 0 -- -- 100
2017-11-29 20:00:00 4.8 5 Sudoeste 10 Sudoeste 0.2 -- -- 100
2017-11-29 19:00:00 4.9 5 Sudoeste 11 Sudoeste 0.6 -- -- 99
2017-11-29 18:00:00 5.5 8 Sudoeste 10 Sudoeste 0.2 -- -- 98
2017-11-29 17:00:00 6.2 7 Sudoeste 14 Norte 2.8 -- -- 98
2017-11-29 16:00:00 7 10 Norte 25 Noroeste 1.4 -- -- 94
2017-11-29 15:00:00 7.3 8 Oeste 27 Oeste 0.6 -- -- 92
2017-11-29 14:00:00 7.7 10 Noroeste 20 Noroeste 0.4 -- -- 91
2017-11-29 13:00:00 7.5 3 Este 32 Noroeste 0.2 -- -- 95
2017-11-29 12:00:00 7.6 7 Oeste 15 Sudoeste 0.2 -- -- 100
2017-11-29 11:00:00 7 3 Noroeste 13 Norte 3.2 -- -- 100
2017-11-29 10:00:00 7.3 8 Sudoeste 12 Sudoeste 0.4 -- -- 100
2017-11-29 09:00:00 6.9 0 Calma 10 Sudoeste 1.2 -- -- 100
2017-11-29 08:00:00 6.9 8 Sudoeste 13 Oeste 0.6 -- -- 100
2017-11-29 07:00:00 7.1 2 Oeste 13 Noroeste 1.6 -- -- 100
2017-11-29 06:00:00 7.2 7 Sudoeste 19 Oeste 0.6 -- -- 100
2017-11-29 05:00:00 7.2 4 Norte 14 Oeste 1.2 -- -- 100
2017-11-29 04:00:00 7 6 Oeste 15 Oeste 0.2 -- -- 100
2017-11-29 03:00:00 7.7 8 Sudoeste 13 Oeste 0.2 -- -- 100
2017-11-29 02:00:00 8 5 Sudoeste 8 Sudoeste 1.2 -- -- 100
2017-11-29 01:00:00 8.4 9 Sudoeste 18 Noroeste 1.4 -- -- 99
2017-11-29 00:00:00 8.7 7 Noroeste 15 Noroeste 0.6 -- -- 100
2017-11-28 23:00:00 8.8 6 Sudoeste 11 Sudoeste 1.4 -- -- 100
2017-11-28 22:00:00 8.8 5 Sur 11 Sudoeste 0.8 -- -- 100
2017-11-28 21:00:00 9 6 Sudoeste 8 Sudoeste 1.8 -- -- 99
2017-11-28 20:00:00 9.4 3 Sudeste 18 Norte 1.8 -- -- 96
2017-11-28 19:00:00 10.2 12 Norte 30 Noroeste 1.6 -- -- 92
2017-11-28 18:00:00 11.8 5 Oeste 15 Oeste 0 -- -- 75
2017-11-28 17:00:00 12.3 8 Sudoeste 17 Oeste 0 -- -- 73
2017-11-28 16:00:00 12.9 5 Oeste 21 Noroeste 0 -- -- 69
2017-11-28 15:00:00 13.8 3 Oeste 25 Noroeste 0 -- -- 65
2017-11-28 14:00:00 14.2 12 Oeste 21 Oeste 0 -- -- 64
2017-11-28 13:00:00 12.5 13 Oeste 22 Oeste 0 -- -- 68
2017-11-28 12:00:00 9.5 5 Sudoeste 13 Sudoeste 0 -- -- 90
2017-11-28 11:00:00 5.6 5 Sudoeste 14 Sudoeste 0 -- -- 100
2017-11-28 10:00:00 4.1 8 Sudoeste 12 Sudoeste 0 -- -- 100
2017-11-28 09:00:00 2.8 6 Sudoeste 13 Sudoeste 0 -- -- 100
2017-11-28 08:00:00 2.1 9 Sudoeste 14 Oeste 0 -- -- 100
2017-11-28 07:00:00 2.1 10 Sudoeste 16 Oeste 0 -- -- 100
2017-11-28 06:00:00 2 10 Sudoeste 14 Sudoeste 0 -- -- 100
2017-11-28 05:00:00 2.4 7 Sudoeste 10 Sudoeste 0 -- -- 100
2017-11-28 04:00:00 2.4 7 Sudoeste 10 Sudoeste 0 -- -- 100
2017-11-28 03:00:00 2.8 8 Sudoeste 13 Sudoeste 0 -- -- 100
2017-11-28 02:00:00 3 7 Sudoeste 11 Sudoeste 0 -- -- 100
2017-11-28 01:00:00 3.4 6 Sudoeste 10 Sudoeste 0 -- -- 100
2017-11-28 00:00:00 3.5 4 Sudoeste 12 Sudoeste 0 -- -- 99
2017-11-27 23:00:00 3.8 5 Sudoeste 10 Sudoeste 0 -- -- 99
2017-11-27 22:00:00 4.3 8 Sudoeste 13 Sudoeste 0 -- -- 98
2017-11-27 21:00:00 4.6 6 Sudoeste 12 Sudoeste 0 -- -- 98
2017-11-27 20:00:00 5.4 4 Oeste 10 Sudoeste 0 -- -- 95
2017-11-27 19:00:00 6.2 4 Sudoeste 10 Oeste 0 -- -- 94
2017-11-27 18:00:00 7.4 6 Oeste 10 Oeste 0 -- -- 87
2017-11-27 17:00:00 9.4 4 Nordeste 10 Norte 0 -- -- 75
2017-11-27 16:00:00 10.7 4 Nordeste 17 Nordeste 0 -- -- 70
2017-11-27 15:00:00 10.9 7 Este 14 Este 0 -- -- 69
2017-11-27 14:00:00 11.5 6 Nordeste 12 Este 0 -- -- 69
2017-11-27 13:00:00 11 2 Nordeste 6 Norte 0 -- -- 79
2017-11-27 12:00:00 8.9 0 Calma 7 Oeste 0 -- -- 95
2017-11-27 11:00:00 6.5 3 Oeste 7 Sudoeste 0 -- -- 100
2017-11-27 10:00:00 4.3 3 Sudoeste 8 Sudoeste 0 -- -- 100
2017-11-27 09:00:00 3.3 5 Sudoeste 8 Sudoeste 0 -- -- 100
2017-11-27 08:00:00 3.2 5 Oeste 8 Oeste 0.2 -- -- 100
2017-11-27 07:00:00 4.2 3 Sudoeste 8 Sudoeste 0 -- -- 100
2017-11-27 06:00:00 4.6 5 Oeste 9 Sudoeste 0 -- -- 100
2017-11-27 05:00:00 5.5 5 Sudoeste 9 Sudoeste 0 -- -- 100
2017-11-27 04:00:00 6.2 3 Sudoeste 9 Sudoeste 0 -- -- 100
2017-11-27 03:00:00 6.5 5 Sudoeste 11 Sudoeste -- -- -- 100
2017-11-27 02:00:00 6.5 3 Sudoeste 12 Sudoeste 0 -- -- 100
2017-11-27 01:00:00 6.3 7 Sudoeste 10 Oeste 0 -- -- 100
2017-11-27 00:00:00 6 4 Oeste 8 Sur 0 -- -- 100
2017-11-26 23:00:00 6.1 6 Oeste 11 Sudoeste 0 -- -- 100
2017-11-26 22:00:00 6.2 6 Sudoeste 10 Sudoeste 0 -- -- 100
2017-11-26 21:00:00 6.8 5 Sudoeste 8 Oeste 0 -- -- 99
2017-11-26 20:00:00 7.3 3 Sudoeste 6 Sudoeste 0 -- -- 98
2017-11-26 19:00:00 7.9 5 Sur 6 Oeste 0 -- -- 96
2017-11-26 18:00:00 9.3 3 Sudoeste 5 Sur 0 -- -- 95
2017-11-26 17:00:00 10.5 3 Nordeste 13 Nordeste 0.4 -- -- 90
2017-11-26 16:00:00 11.4 4 Sudoeste 9 Sudoeste 0 -- -- 86
2017-11-26 15:00:00 11.9 4 Sudoeste 8 Sudoeste 0 -- -- 86
2017-11-26 14:00:00 10.4 3 Sudoeste 8 Sudoeste 0.4 -- -- 93
2017-11-26 13:00:00 10.6 6 Oeste 9 Oeste 1.6 -- -- 95
2017-11-26 12:00:00 10.4 4 Sur 15 Sudoeste 0.2 -- -- 91
2017-11-26 11:00:00 8.9 8 Sudoeste 15 Sudoeste 0.2 -- -- 100
2017-11-26 10:00:00 6.8 4 Sudoeste 12 Oeste 0.2 -- -- 100
2017-11-26 09:00:00 6.1 4 Sudoeste 11 Sudoeste 1 -- -- 100
2017-11-26 08:00:00 5.4 8 Sudoeste 10 Sudoeste 0 -- -- 100
2017-11-26 07:00:00 5.3 2 Sur 10 Sudoeste 0 -- -- 100
2017-11-26 06:00:00 5.5 7 Sudoeste 11 Sudoeste 0.4 -- -- 100
2017-11-26 05:00:00 4.9 7 Sudoeste 13 Sudoeste 0.6 -- -- 100
2017-11-26 04:00:00 5 7 Sudoeste 13 Sudoeste 0.2 -- -- 100
2017-11-26 03:00:00 5 6 Sudoeste 10 Sudoeste 0 -- -- 100
2017-11-26 02:00:00 5.3 5 Sudoeste 10 Sudoeste 0 -- -- 100
2017-11-26 01:00:00 5.7 6 Sur 12 Oeste 0.2 -- -- 100
2017-11-26 00:00:00 5.7 8 Oeste 12 Oeste 0.2 -- -- 100
2017-11-25 23:00:00 5.6 4 Oeste 12 Oeste 0 -- -- 99
2017-11-25 22:00:00 6.3 5 Sudoeste 12 Oeste 0 -- -- 98
2017-11-25 21:00:00 7.4 3 Sudoeste 8 Oeste 0.4 -- -- 98
2017-11-25 20:00:00 7.6 5 Sudoeste 9 Sudoeste 0 -- -- 96
2017-11-25 19:00:00 8.4 6 Sudoeste 11 Oeste 0 -- -- 94
2017-11-25 18:00:00 9.7 4 Sudoeste 7 Sudoeste 0 -- -- 84
2017-11-25 17:00:00 10.7 3 Nordeste 16 Nordeste 0 -- -- 70
2017-11-25 16:00:00 11.3 10 Nordeste 20 Nordeste 0 -- -- 70
2017-11-25 15:00:00 11.5 4 Nordeste 12 Nordeste 0 -- -- 80
2017-11-25 14:00:00 11.6 5 Sudoeste 11 Sudoeste 0.2 -- -- 95
2017-11-25 13:00:00 11 6 Sudoeste 15 Sudeste 0.6 -- -- 93
2017-11-25 12:00:00 11.3 3 Noroeste 10 Sudoeste 0.2 -- -- 96
2017-11-25 11:00:00 10.7 5 Oeste 13 Oeste 0.4 -- -- 98
2017-11-25 10:00:00 10.3 8 Sudoeste 14 Sudoeste 1.4 -- -- 99
2017-11-25 09:00:00 10.2 2 Sur 14 Noroeste 0.8 -- -- 98
2017-11-25 08:00:00 10.4 4 Norte 13 Nordeste 0.8 -- -- 97
2017-11-25 07:00:00 10.9 9 Nordeste 22 Nordeste 0.8 -- -- 97
2017-11-25 06:00:00 11.4 4 Noroeste 14 Nordeste 0 -- -- 95
2017-11-25 05:00:00 11.4 9 Norte 17 Norte 1.2 -- -- 99
2017-11-25 04:00:00 12 5 Nordeste 28 Nordeste 1 -- -- 98
2017-11-25 03:00:00 12.3 5 Nordeste 19 Noroeste 2.2 -- -- 98
2017-11-25 02:00:00 12.2 6 Oeste 15 Noroeste 2.6 -- -- 99
2017-11-25 01:00:00 12.2 6 Sudoeste 13 Oeste 1.8 -- -- 99
2017-11-25 00:00:00 12.4 6 Sudoeste 10 Sudoeste 1 -- -- 99
2017-11-24 23:00:00 12.6 4 Sudoeste 11 Sudeste 0.6 -- -- 97
2017-11-24 22:00:00 12.9 3 Sudeste 19 Nordeste 0 -- -- 95
2017-11-24 21:00:00 13.6 8 Nordeste 17 Nordeste 0 -- -- 97
2017-11-24 20:00:00 14.2 5 Nordeste 9 Nordeste 0.4 -- -- 97
2017-11-24 19:00:00 14.6 3 Este 9 Este 0 -- -- 94
2017-11-24 18:00:00 14.7 6 Nordeste 11 Nordeste 0 -- -- 94
2017-11-24 17:00:00 15 9 Nordeste 22 Norte 0 -- -- 94
2017-11-24 16:00:00 15.8 13 Nordeste 20 Norte 0 -- -- 91
2017-11-24 15:00:00 16 12 Norte 21 Nordeste 0 -- -- 90
2017-11-24 14:00:00 16.6 9 Nordeste 14 Nordeste 0 -- -- 87
2017-11-24 13:00:00 17.6 4 Nordeste 11 Norte 0 -- -- 78
2017-11-24 12:00:00 17.1 2 Sudoeste 9 Sur 0 -- -- 78
2017-11-24 11:00:00 15.1 5 Sur 10 Sudoeste 0 -- -- 89
2017-11-24 10:00:00 14.2 5 Sudoeste 14 Sudoeste 0.2 -- -- 89
2017-11-24 09:00:00 13.7 9 Sudoeste 17 Sudoeste 0 -- -- 86
2017-11-24 08:00:00 13.6 5 Sur 10 Sudoeste 0 -- -- 84
2017-11-24 07:00:00 14.3 9 Sudoeste 15 Oeste 0.2 -- -- 77
2017-11-24 06:00:00 16.3 11 Oeste 27 Oeste 0 -- -- 65
2017-11-24 05:00:00 18.4 18 Oeste 33 Oeste 0 -- -- 50
2017-11-24 04:00:00 19.4 14 Oeste 34 Oeste 0 -- -- 41
2017-11-24 03:00:00 18.8 6 Sudoeste 23 Sudoeste 0 -- -- 41
2017-11-24 02:00:00 18.7 9 Oeste 28 Sudoeste 0 -- -- 43
2017-11-24 01:00:00 19.3 16 Sudoeste 35 Sudoeste 0 -- -- 42
2017-11-24 00:00:00 19.1 12 Sudoeste 23 Sudoeste 0 -- -- 46
2017-11-23 23:00:00 19.7 14 Sudoeste 31 Sudoeste 0 -- -- 48
2017-11-23 22:00:00 18.9 15 Sudoeste 26 Sudoeste 0 -- -- 53
2017-11-23 21:00:00 18.7 11 Sudoeste 26 Oeste 0 -- -- 55
2017-11-23 20:00:00 18.7 14 Oeste 26 Sudoeste 0 -- -- 60
2017-11-23 19:00:00 18.7 16 Sudoeste 27 Oeste 0 -- -- 61
2017-11-23 18:00:00 19.2 17 Sudoeste 26 Sudoeste 0 -- -- 57
2017-11-23 17:00:00 19.7 13 Sudoeste 23 Sudoeste 0 -- -- 56
2017-11-23 16:00:00 20.7 12 Sudoeste 28 Sudoeste 0 -- -- 54
2017-11-23 15:00:00 21.2 15 Oeste 37 Oeste 0 -- -- 52
2017-11-23 14:00:00 22 17 Oeste 35 Oeste 0 -- -- 49
2017-11-23 13:00:00 20.9 11 Oeste 22 Oeste 0 -- -- 54
2017-11-23 12:00:00 21.2 10 Sudoeste 30 Sudoeste 0 -- -- 50
2017-11-23 11:00:00 19.1 16 Oeste 36 Sudoeste 0 -- -- 55
2017-11-23 10:00:00 17.8 11 Oeste 26 Sur 0 -- -- 57
2017-11-23 09:00:00 18.4 14 Oeste 37 Oeste 0 -- -- 53
2017-11-23 08:00:00 16.8 15 Oeste 25 Sudoeste 0 -- -- 52
2017-11-23 07:00:00 15.3 12 Oeste 22 Sudoeste 0.4 -- -- 63
2017-11-23 06:00:00 17 14 Sudoeste 27 Oeste 0 -- -- 44
2017-11-23 05:00:00 17.2 14 Sudoeste 33 Oeste 0 -- -- 43
2017-11-23 04:00:00 17.4 13 Oeste 31 Oeste 0 -- -- 43
2017-11-23 03:00:00 16.5 9 Oeste 31 Oeste 0 -- -- 44
2017-11-23 02:00:00 16.2 6 Sudoeste 14 Sur 0 -- -- 44
2017-11-23 01:00:00 17 11 Oeste 22 Oeste 0 -- -- 41
2017-11-23 00:00:00 17.6 15 Oeste 30 Sudoeste 0 -- -- 40
2017-11-22 23:00:00 17.5 17 Oeste 26 Sudoeste 0 -- -- 39
2017-11-22 22:00:00 16.5 12 Sudoeste 24 Sudoeste 0 -- -- 44
2017-11-22 21:00:00 16.9 9 Sudoeste 16 Oeste 0 -- -- 41
2017-11-22 20:00:00 16.9 9 Oeste 15 Oeste 0 -- -- 43
2017-11-22 19:00:00 17 11 Oeste 17 Oeste 0 -- -- 42
2017-11-22 18:00:00 18.1 3 Nordeste 32 Oeste 0 -- -- 39
2017-11-22 17:00:00 19.5 17 Sudoeste 30 Oeste 0 -- -- 39
2017-11-22 16:00:00 21.3 11 Sudoeste 34 Sudoeste 0 -- -- 37
2017-11-22 15:00:00 21.5 14 Sudoeste 29 Sudoeste 0 -- -- 36
2017-11-22 14:00:00 21.3 14 Sudoeste 41 Oeste 0 -- -- 39
2017-11-22 13:00:00 20.2 23 Sudoeste 39 Sudoeste 0 -- -- 38
2017-11-22 12:00:00 19.3 24 Sudoeste 43 Sudoeste 0 -- -- 40
2017-11-22 11:00:00 17.7 20 Sudoeste 35 Sudoeste 0 -- -- 42
2017-11-22 10:00:00 15.2 15 Sudoeste 28 Oeste 0 -- -- 49
2017-11-22 09:00:00 15.1 19 Oeste 39 Oeste 0 -- -- 44
2017-11-22 08:00:00 13.2 12 Sudoeste 37 Oeste 0 -- -- 50
2017-11-22 07:00:00 14 22 Oeste 35 Oeste 0 -- -- 47
2017-11-22 06:00:00 12.1 17 Sudoeste 29 Oeste 0 -- -- 52
2017-11-22 05:00:00 11.3 9 Sudoeste 16 Oeste 0 -- -- 52
2017-11-22 04:00:00 8.7 11 Sudoeste 16 Sudoeste 0 -- -- 64
2017-11-22 03:00:00 9.1 4 Sur 7 Sudoeste 0 -- -- 58
2017-11-22 02:00:00 8 0 Calma 9 Sudoeste 0 -- -- 68
2017-11-22 01:00:00 7.4 2 Sudeste 18 Sudoeste 0 -- -- 71
2017-11-22 00:00:00 6.6 5 Sudoeste 17 Sudoeste 0 -- -- 82
2017-11-21 23:00:00 6.6 10 Sudoeste 14 Sudoeste 0 -- -- 90
2017-11-21 22:00:00 6.3 8 Sudoeste 17 Sudoeste 0 -- -- 92
2017-11-21 21:00:00 7 12 Oeste 15 Oeste 0 -- -- 93
2017-11-21 20:00:00 8.5 6 Sudoeste 12 Oeste 0 -- -- 89
2017-11-21 19:00:00 10.5 7 Sudoeste 12 Sudoeste 0 -- -- 84
2017-11-21 18:00:00 13.3 7 Sudoeste 11 Oeste 0 -- -- 74
2017-11-21 17:00:00 17.8 5 Nordeste 8 Nordeste 0 -- -- 52
2017-11-21 16:00:00 21.6 0 Calma 7 Nordeste 0 -- -- 51
2017-11-21 15:00:00 20.9 5 Sudoeste 11 Sudoeste 0 -- -- 43
2017-11-21 14:00:00 20.1 2 Sudoeste 10 Sur 0 -- -- 48
2017-11-21 13:00:00 17.8 7 Sudoeste 12 Sudoeste 0 -- -- 59
2017-11-21 12:00:00 15.1 8 Sudoeste 13 Oeste 0 -- -- 68
2017-11-21 11:00:00 11.5 7 Sudoeste 13 Sudoeste 0 -- -- 82
2017-11-21 10:00:00 7.6 6 Sudoeste 12 Oeste 0 -- -- 92
2017-11-21 09:00:00 4.6 9 Sudoeste 13 Oeste 0 -- -- 99
2017-11-21 08:00:00 4 12 Oeste 14 Oeste 0 -- -- 100
2017-11-21 07:00:00 4.1 8 Sudoeste 12 Sudoeste 0 -- -- 99
2017-11-21 06:00:00 4.4 8 Sudoeste 13 Oeste 0 -- -- 99
2017-11-21 05:00:00 4.6 11 Oeste 13 Oeste 0 -- -- 99
2017-11-21 04:00:00 4.9 7 Oeste 10 Sudoeste 0 -- -- 98
2017-11-21 03:00:00 5 8 Sudoeste 11 Sudoeste 0 -- -- 99
2017-11-21 02:00:00 5 6 Oeste 10 Oeste 0 -- -- 98
2017-11-21 01:00:00 5.9 6 Sudoeste 11 Sudoeste 0 -- -- 98
2017-11-21 00:00:00 6.3 9 Sudoeste 14 Sudoeste 0 -- -- 100
2017-11-20 23:00:00 6.3 5 Sudoeste 11 Oeste 0 -- -- 99
2017-11-20 22:00:00 7.1 5 Sudoeste 12 Sudoeste 0 -- -- 99
2017-11-20 21:00:00 7.5 9 Oeste 11 Oeste 0 -- -- 98
2017-11-20 20:00:00 8.6 7 Sudoeste 10 Sudoeste 0 -- -- 97
2017-11-20 19:00:00 9.9 8 Sudoeste 11 Sudoeste 0 -- -- 94
2017-11-20 18:00:00 12.1 2 Nordeste 9 Nordeste 0 -- -- 86
2017-11-20 17:00:00 13.5 8 Nordeste 13 Nordeste 0 -- -- 82
2017-11-20 16:00:00 15.9 7 Nordeste 12 Nordeste 0 -- -- 76
2017-11-20 15:00:00 17.6 5 Nordeste 9 Nordeste 0 -- -- 67
2017-11-20 14:00:00 16.6 0 Calma 4 Norte 0 -- -- 63
2017-11-20 13:00:00 14.3 0 Calma 4 Nordeste 0.2 -- -- 68
2017-11-20 12:00:00 11.6 0 Calma 5 Sudoeste 0 -- -- 77
2017-11-20 11:00:00 8.2 3 Sur 8 Sudoeste 0 -- -- 91
2017-11-20 10:00:00 5.1 6 Sudoeste 12 Oeste 0 -- -- 100
2017-11-20 09:00:00 2.1 7 Sudoeste 10 Oeste 0 -- -- 100
2017-11-20 08:00:00 1.3 8 Sudoeste 10 Sudoeste 0 -- -- 100
2017-11-20 07:00:00 1.7 6 Sudoeste 12 Sudoeste 0 -- -- 100
2017-11-20 06:00:00 1.8 6 Sudoeste 10 Oeste 0 -- -- 100
2017-11-20 05:00:00 1.6 8 Sudoeste 10 Sudoeste 0 -- -- 100
2017-11-20 04:00:00 1.9 8 Oeste 10 Sudoeste 0 -- -- 100
2017-11-20 03:00:00 2.4 7 Sudoeste 10 Sudoeste 0 -- -- 100
2017-11-20 02:00:00 2.7 6 Sudoeste 9 Oeste 0 -- -- 100
2017-11-20 01:00:00 3.2 6 Sudoeste 11 Oeste 0 -- -- 100
2017-11-20 00:00:00 4.1 0 Calma 9 Sudoeste 0 -- -- 99
2017-11-19 23:00:00 4 6 Sudoeste 12 Oeste 0 -- -- 99
2017-11-19 22:00:00 4.8 8 Oeste 11 Oeste 0 -- -- 98
2017-11-19 21:00:00 5.5 6 Sudoeste 8 Sudoeste 0 -- -- 97
2017-11-19 20:00:00 7.3 3 Sudoeste 5 Sudoeste 0 -- -- 93
2017-11-19 19:00:00 8.7 3 Este 9 Nordeste 0 -- -- 89
2017-11-19 18:00:00 10.1 6 Nordeste 14 Nordeste 0 -- -- 82
2017-11-19 17:00:00 12.4 4 Nordeste 18 Norte 0 -- -- 75
2017-11-19 16:00:00 13.8 11 Nordeste 18 Norte 0 -- -- 70
2017-11-19 15:00:00 14.1 10 Norte 18 Nordeste 0 -- -- 70
2017-11-19 14:00:00 14.3 7 Norte 15 Norte 0 -- -- 72
2017-11-19 13:00:00 12.8 3 Nordeste 8 Nordeste 0 -- -- 76
2017-11-19 12:00:00 10.1 2 Sur 6 Oeste 0 -- -- 91
2017-11-19 11:00:00 7.2 6 Oeste 12 Sudoeste 0 -- -- 100
2017-11-19 10:00:00 4.4 6 Sudoeste 9 Sudoeste 0 -- -- 100
2017-11-19 09:00:00 2.7 4 Sudoeste 13 Sudoeste 0 -- -- 100
2017-11-19 08:00:00 2.2 7 Sudoeste 12 Sudoeste 0.2 -- -- 100
2017-11-19 07:00:00 2.3 6 Sudoeste 13 Sudoeste 0 -- -- 100
2017-11-19 06:00:00 2.9 9 Sudoeste 12 Sudoeste 0 -- -- 100
2017-11-19 05:00:00 3 4 Sudoeste 10 Sudoeste 0 -- -- 100
2017-11-19 04:00:00 3.4 7 Sudoeste 12 Sudoeste 0 -- -- 100
2017-11-19 03:00:00 3.5 5 Sudoeste 9 Sudoeste 0 -- -- 100
2017-11-19 02:00:00 4.3 6 Sudoeste 11 Sudoeste 0 -- -- 100
2017-11-19 01:00:00 4.6 6 Oeste 9 Sudoeste 0 -- -- 100
2017-11-19 00:00:00 5.2 6 Sudoeste 12 Sudoeste 0 -- -- 100
2017-11-18 23:00:00 5.4 5 Sudoeste 9 Oeste 0 -- -- 100
2017-11-18 22:00:00 5.7 7 Oeste 9 Oeste 0 -- -- 99
2017-11-18 21:00:00 6.8 6 Oeste 9 Oeste 0 -- -- 98
2017-11-18 20:00:00 8.8 0 Calma 5 Sudeste 0 -- -- 97
2017-11-18 19:00:00 10 3 Este 6 Nordeste 0 -- -- 93
2017-11-18 18:00:00 11.3 4 Nordeste 13 Este 0 -- -- 89
2017-11-18 17:00:00 13.2 4 Nordeste 18 Este 0 -- -- 82
2017-11-18 16:00:00 14.6 7 Nordeste 18 Norte 0 -- -- 78
2017-11-18 15:00:00 15.2 9 Nordeste 21 Norte 0 -- -- 76
2017-11-18 14:00:00 15.3 14 Nordeste 22 Nordeste 0.2 -- -- 73
2017-11-18 13:00:00 14.2 11 Nordeste 19 Nordeste 0 -- -- 83
2017-11-18 12:00:00 14 2 Sudeste 7 Oeste 0 -- -- 88
2017-11-18 11:00:00 12.6 5 Oeste 8 Sudoeste 0 -- -- 99
2017-11-18 10:00:00 10.4 0 Calma 8 Sudoeste 0 -- -- 100
2017-11-18 09:00:00 8.5 7 Oeste 10 Sudoeste 0 -- -- 100
2017-11-18 08:00:00 8.1 6 Sudoeste 10 Sudoeste 0 -- -- 100
2017-11-18 07:00:00 7.6 5 Sudoeste 10 Sudoeste 0 -- -- 100
2017-11-18 06:00:00 7.9 6 Sudoeste 9 Sudoeste 0 -- -- 100
2017-11-18 05:00:00 7.3 4 Sudoeste 9 Sudoeste 0 -- -- 100
2017-11-18 04:00:00 6.6 5 Sudoeste 8 Sudoeste 0 -- -- 100
2017-11-18 03:00:00 5.9 6 Oeste 9 Oeste 0 -- -- 100
2017-11-18 02:00:00 5.9 6 Sudoeste 8 Sudoeste 0 -- -- 100
2017-11-18 01:00:00 6.3 6 Sudoeste 10 Oeste 0 -- -- 100
2017-11-18 00:00:00 6.5 6 Sudoeste 8 Sudoeste 0 -- -- 100
2017-11-17 23:00:00 7.5 3 Sudoeste 8 Oeste 0 -- -- 100
2017-11-17 22:00:00 8.1 4 Sudoeste 6 Oeste 0 -- -- 99
2017-11-17 21:00:00 9.1 4 Sudoeste 6 Sudoeste 0 -- -- 98
2017-11-17 20:00:00 10 4 Sudoeste 6 Sudoeste 0 -- -- 97
2017-11-17 19:00:00 11 4 Oeste 6 Oeste 0 -- -- 94
2017-11-17 18:00:00 12.1 3 Nordeste 12 Nordeste 0 -- -- 90
2017-11-17 17:00:00 13.8 8 Nordeste 18 Norte 0 -- -- 85
2017-11-17 16:00:00 15.3 9 Nordeste 19 Nordeste 0 -- -- 81
2017-11-17 15:00:00 15.9 9 Nordeste 16 Nordeste 0 -- -- 76
2017-11-17 14:00:00 16.2 6 Nordeste 14 Nordeste 0 -- -- 74
2017-11-17 13:00:00 15.3 4 Nordeste 9 Nordeste 0 -- -- 77
2017-11-17 12:00:00 14 4 Sudoeste 9 Oeste 0 -- -- 84
2017-11-17 11:00:00 11.4 4 Oeste 12 Sudoeste 0 -- -- 94
2017-11-17 10:00:00 7.8 6 Sudoeste 10 Sudoeste 0 -- -- 100
2017-11-17 09:00:00 5.8 5 Sudoeste 10 Sudoeste 0 -- -- 100
2017-11-17 08:00:00 4.7 6 Sudoeste 10 Sudoeste 0 -- -- 100
2017-11-17 07:00:00 4.4 6 Sudoeste 8 Oeste 0.2 -- -- 100
2017-11-17 06:00:00 4.1 3 Sudoeste 10 Sudoeste 0 -- -- 100
2017-11-17 05:00:00 4.1 7 Oeste 9 Sudoeste 0 -- -- 100
2017-11-17 04:00:00 4.8 6 Sudoeste 9 Sudoeste 0 -- -- 100
2017-11-17 03:00:00 4.7 4 Sudoeste 9 Sudoeste 0 -- -- 100
2017-11-17 02:00:00 4.8 5 Sudoeste 11 Sudoeste 0 -- -- 100
2017-11-17 01:00:00 4.9 6 Sudoeste 11 Oeste 0 -- -- 99
2017-11-17 00:00:00 5.6 5 Sudoeste 8 Oeste 0 -- -- 99
2017-11-16 23:00:00 5.7 5 Sudoeste 10 Sudoeste 0 -- -- 98
2017-11-16 22:00:00 6.4 7 Sudoeste 9 Sudoeste 0 -- -- 97
2017-11-16 21:00:00 7 8 Oeste 9 Oeste 0 -- -- 96
2017-11-16 20:00:00 8.4 4 Sudoeste 8 Sudoeste 0 -- -- 94
2017-11-16 19:00:00 9.6 5 Sudoeste 7 Oeste 0 -- -- 91
2017-11-16 18:00:00 11.3 2 Sudeste 7 Norte 0 -- -- 83
2017-11-16 17:00:00 12.8 4 Norte 10 Nordeste 0 -- -- 76
2017-11-16 16:00:00 15.2 6 Nordeste 10 Nordeste 0 -- -- 71
2017-11-16 15:00:00 15.7 6 Nordeste 11 Nordeste 0 -- -- 67
2017-11-16 14:00:00 15.7 6 Nordeste 9 Nordeste 0 -- -- 62
2017-11-16 13:00:00 14.4 0 Calma 5 Nordeste 0 -- -- 69
2017-11-16 12:00:00 12.3 2 Sur 7 Oeste 0 -- -- 76
2017-11-16 11:00:00 8.9 4 Sudoeste 10 Oeste 0 -- -- 90
2017-11-16 10:00:00 5.7 5 Sur 10 Sudoeste 0 -- -- 100
2017-11-16 09:00:00 2.7 5 Sudoeste 9 Oeste 0 -- -- 100
2017-11-16 08:00:00 1.4 6 Oeste 10 Sudoeste 0 -- -- 100
2017-11-16 07:00:00 1.6 9 Oeste 11 Oeste 0 -- -- 100
2017-11-16 06:00:00 1.9 5 Sudoeste 10 Oeste 0 -- -- 100
2017-11-16 05:00:00 2.2 8 Sudoeste 10 Oeste 0 -- -- 100
2017-11-16 04:00:00 2.3 5 Sudoeste 10 Sudoeste 0 -- -- 100
2017-11-16 03:00:00 2.6 6 Sudoeste 10 Sudoeste 0 -- -- 100
2017-11-16 02:00:00 2.8 6 Oeste 10 Sudoeste 0 -- -- 99
2017-11-16 01:00:00 3.4 8 Sudoeste 12 Sudoeste 0 -- -- 100
2017-11-16 00:00:00 3.3 8 Sudoeste 11 Sudoeste 0 -- -- 100
2017-11-15 23:00:00 3.7 5 Sudoeste 9 Sudoeste 0 -- -- 99
2017-11-15 22:00:00 4.3 6 Sudoeste 8 Sudoeste 0 -- -- 98
2017-11-15 21:00:00 5.1 5 Sudoeste 8 Oeste 0 -- -- 97
2017-11-15 20:00:00 6.3 6 Sudoeste 9 Oeste 0 -- -- 93
2017-11-15 19:00:00 8 2 Este 11 Nordeste 0 -- -- 88
2017-11-15 18:00:00 9.1 6 Nordeste 13 Nordeste 0 -- -- 83
2017-11-15 17:00:00 11.7 7 Nordeste 12 Norte 0 -- -- 74
2017-11-15 16:00:00 13.1 8 Norte 13 Norte 0 -- -- 72
2017-11-15 15:00:00 13.6 8 Nordeste 12 Nordeste 0 -- -- 70
2017-11-15 14:00:00 12.9 7 Norte 14 Norte 0 -- -- 68
2017-11-15 13:00:00 11.7 2 Este 6 Nordeste 0 -- -- 68
2017-11-15 12:00:00 9 0 Calma 4 Nordeste 0 -- -- 88
2017-11-15 11:00:00 7.1 3 Oeste 9 Oeste 0 -- -- 92
2017-11-15 10:00:00 4 0 Calma 9 Sudoeste 0 -- -- 100
2017-11-15 09:00:00 1.5 8 Oeste 13 Oeste 0 -- -- 100
2017-11-15 08:00:00 1.2 6 Sudoeste 10 Oeste 0 -- -- 100
2017-11-15 07:00:00 1.2 5 Sudoeste 10 Oeste 0 -- -- 100
2017-11-15 06:00:00 1.6 5 Oeste 10 Sudoeste 0 -- -- 100
2017-11-15 05:00:00 1.8 9 Sudoeste 12 Sudoeste 0 -- -- 100
2017-11-15 04:00:00 2.1 7 Sudoeste 10 Oeste 0 -- -- 100
2017-11-15 03:00:00 2.5 0 Calma 12 Sudoeste 0 -- -- 99
2017-11-15 02:00:00 2.8 2 Sudoeste 10 Sudoeste 0 -- -- 99
2017-11-15 01:00:00 3.1 6 Oeste 10 Oeste 0 -- -- 98
2017-11-15 00:00:00 3.8 5 Sudoeste 9 Sudoeste 0 -- -- 97